Charleroi, Belgium

7:01 PM CET on February 09, 2016 (GMT +0100)
Garden | | Change Station
CLOSE
Current Station
Personal Weather Station
Location: Courcelles, RéGION WALLONNE
Elevation: 413 ft
Nearby Weather Stations

Elev 413 ft 50.45 °N, 4.37 °E | Updated 15 minutes ago

Mostly Cloudy
Mostly Cloudy
38.7 °F
Feels Like 36 °F
N
4.3
Wind Variable Wind from WSW

Today
High -- | Low -- °F
--% Chance of Precip.
Yesterday
High -- | Low -- °F
Precip. -- in
Pressure 29.15 in
Visibility 6.2 miles
Clouds Few 500 ft
Mostly Cloudy 900 ft
Windchill 36 °F
Dew Point 38 °F
Humidity 98%
Rainfall 0.52 in
Snow Depth Not available.
8:05 AM 5:47 PM
New Moon, 2% visible
METAR EBCI 091750Z 25013KT 9999 FEW005 BKN009 04/02 Q0987 NOSIG
Pressure 29.15 in
Visibility 6.2 miles
Clouds Few 500 ft
Mostly Cloudy 900 ft
Windchill 36 °F
Dew Point 38 °F
Humidity 98%
Rainfall 0.52 in
Snow Depth Not available.
8:05 AM 5:47 PM
New Moon, 2% visible
METAR EBCI 091750Z 25013KT 9999 FEW005 BKN009 04/02 Q0987 NOSIG

10-Day Weather Forecast

Almanac

Astronomy

Feb. 09, 2016 Rise Set
Actual Time
Civil Twilight
Nautical Twilight
Astronomical Twilight
Moon
Length of Visible Light
Length of Day
Tomorrow will be .
, % of the Moon is Illuminated

Today's Extremes

Country Highs Country Lows

Community

WunderPhotos

Upload Photos

1,891,650 photos uploaded!

WunderBlog® & News

Nearby

Air Quality

  Air Quality AQ Index Pollutant
Not available.

Snow Depth

Station Depth Elevation

Earthquake Activity

City Distance Mag. Time & Date
Minimum magnitude displayed is 2.5.

Coastal Water Temperatures

Place Temperature

Stations

Nearby Weather Stations

Station Location Temp. Windchill Dew Point Humidity Wind Precip. Elev Updated Type